createdAt,value
2017-10-15T00:00:16.380Z,10.20
2017-10-15T00:02:44.696Z,10.20
2017-10-15T00:05:13.727Z,10.10
2017-10-15T00:07:42.011Z,10.10
2017-10-15T00:10:10.291Z,10.10
2017-10-15T00:12:39.350Z,10.10
2017-10-15T00:15:07.620Z,10.00
2017-10-15T00:17:36.662Z,10.10
2017-10-15T00:20:04.951Z,10.00
2017-10-15T00:22:33.232Z,10.00
2017-10-15T00:25:02.256Z,9.90
2017-10-15T00:27:30.531Z,9.90
2017-10-15T00:29:58.795Z,9.90
2017-10-15T00:32:27.071Z,9.90
2017-10-15T00:34:55.288Z,9.90
2017-10-15T00:37:23.549Z,9.90
2017-10-15T00:39:51.777Z,9.80
2017-10-15T00:42:20.772Z,9.70
2017-10-15T00:44:49.028Z,9.70
2017-10-15T00:47:17.260Z,9.70
2017-10-15T00:49:45.490Z,9.70
2017-10-15T00:52:13.756Z,9.70
2017-10-15T00:54:41.995Z,9.70
2017-10-15T00:57:10.211Z,9.60
2017-10-15T00:59:39.232Z,9.60
2017-10-15T01:02:07.462Z,9.50
2017-10-15T01:04:36.452Z,9.60
2017-10-15T01:07:04.848Z,9.50
2017-10-15T01:09:33.073Z,9.50
2017-10-15T01:12:01.301Z,9.50
2017-10-15T01:14:29.728Z,9.50
2017-10-15T01:16:57.947Z,9.50
2017-10-15T01:19:26.172Z,9.40
2017-10-15T01:21:54.814Z,9.40
2017-10-15T01:24:23.049Z,9.40
2017-10-15T01:26:51.276Z,9.40
2017-10-15T01:29:20.304Z,9.50
2017-10-15T01:31:49.313Z,9.50
2017-10-15T01:34:17.536Z,9.50
2017-10-15T01:36:45.893Z,9.60
2017-10-15T01:39:14.124Z,9.50
2017-10-15T01:41:43.136Z,9.40
2017-10-15T01:44:11.408Z,9.30
2017-10-15T01:46:39.632Z,9.30
2017-10-15T01:49:08.624Z,9.30
2017-10-15T01:51:36.877Z,9.20
2017-10-15T01:54:05.868Z,9.10
2017-10-15T01:56:34.372Z,9.10
2017-10-15T01:59:02.724Z,9.20
2017-10-15T02:01:30.994Z,9.20
2017-10-15T02:03:59.212Z,9.10
2017-10-15T02:06:27.492Z,9.20
2017-10-15T02:08:55.729Z,9.20
2017-10-15T02:11:24.024Z,9.30
2017-10-15T02:13:52.285Z,9.30
2017-10-15T02:16:20.517Z,9.20
2017-10-15T02:18:48.755Z,9.20
2017-10-15T02:21:17.765Z,9.10
2017-10-15T02:23:46.010Z,9.10
2017-10-15T02:26:14.988Z,9.10
2017-10-15T02:28:43.385Z,9.00
2017-10-15T02:31:12.420Z,9.00
2017-10-15T02:33:41.419Z,8.90
2017-10-15T02:36:09.664Z,8.90
2017-10-15T02:38:37.888Z,8.90
2017-10-15T02:41:06.883Z,9.00
2017-10-15T02:43:35.921Z,9.00
2017-10-15T02:46:04.157Z,8.90
2017-10-15T02:48:32.377Z,9.00
2017-10-15T02:51:00.640Z,8.90
2017-10-15T02:53:28.876Z,8.90
2017-10-15T02:55:57.101Z,8.90
2017-10-15T02:58:25.380Z,8.90
2017-10-15T03:00:53.652Z,8.90
2017-10-15T03:03:21.886Z,8.90
2017-10-15T03:05:50.152Z,8.80
2017-10-15T03:08:18.377Z,8.80
2017-10-15T03:10:47.382Z,8.80
2017-10-15T03:13:15.640Z,8.70
2017-10-15T03:15:43.873Z,8.70
2017-10-15T03:18:12.865Z,8.70
2017-10-15T03:20:41.137Z,8.70
2017-10-15T03:23:09.361Z,8.70
2017-10-15T03:25:37.580Z,8.70
2017-10-15T03:28:05.840Z,8.70
2017-10-15T03:30:34.093Z,8.70
2017-10-15T03:33:02.296Z,8.70
2017-10-15T03:35:31.436Z,8.80
2017-10-15T03:37:59.662Z,8.80
2017-10-15T03:40:28.656Z,8.90
2017-10-15T03:42:56.922Z,8.80
2017-10-15T03:45:25.149Z,8.90
2017-10-15T03:47:54.197Z,8.90
2017-10-15T03:50:22.554Z,8.80
2017-10-15T03:52:50.789Z,8.90
2017-10-15T03:55:19.012Z,8.90
2017-10-15T03:57:48.044Z,8.80
2017-10-15T04:00:16.280Z,8.80
2017-10-15T04:02:44.529Z,8.90
2017-10-15T04:05:12.785Z,8.90
2017-10-15T04:07:41.812Z,8.80
2017-10-15T04:10:10.045Z,8.80
2017-10-15T04:12:38.292Z,8.80
2017-10-15T04:15:06.528Z,8.80
2017-10-15T04:17:35.537Z,8.80
2017-10-15T04:20:03.792Z,8.70
2017-10-15T04:22:32.017Z,8.70
2017-10-15T04:25:00.250Z,8.60
2017-10-15T04:27:28.916Z,8.60
2017-10-15T04:29:57.144Z,8.50
2017-10-15T04:32:25.373Z,8.50
2017-10-15T04:34:53.695Z,8.40
2017-10-15T04:37:21.925Z,8.40
2017-10-15T04:39:50.152Z,8.40
2017-10-15T04:42:18.411Z,8.30
2017-10-15T04:44:47.412Z,8.30
2017-10-15T04:47:16.405Z,8.30
2017-10-15T04:49:44.705Z,8.20
2017-10-15T04:52:12.929Z,8.30
2017-10-15T04:54:41.177Z,8.20
2017-10-15T04:57:10.209Z,8.20
2017-10-15T04:59:38.436Z,8.20
2017-10-15T05:02:06.669Z,8.20
2017-10-15T05:04:35.709Z,8.20
2017-10-15T05:07:03.937Z,8.10
2017-10-15T05:09:32.177Z,8.10
2017-10-15T05:12:01.204Z,8.10
2017-10-15T05:14:29.433Z,8.00
2017-10-15T05:16:57.664Z,8.10
2017-10-15T05:19:26.693Z,8.00
2017-10-15T05:21:54.916Z,8.00
2017-10-15T05:24:23.145Z,7.90
2017-10-15T05:26:51.426Z,7.90
2017-10-15T05:29:20.412Z,7.90
2017-10-15T05:31:48.636Z,7.80
2017-10-15T05:34:16.902Z,7.80
2017-10-15T05:36:45.124Z,7.80
2017-10-15T05:39:13.356Z,7.80
2017-10-15T05:41:42.404Z,7.90
2017-10-15T05:44:10.628Z,7.80
2017-10-15T05:46:38.857Z,7.90
2017-10-15T05:49:07.109Z,7.90
2017-10-15T05:51:36.101Z,7.90
2017-10-15T05:54:04.334Z,7.80
2017-10-15T05:56:32.608Z,7.90
2017-10-15T05:59:01.600Z,7.90
2017-10-15T06:01:29.833Z,7.90
2017-10-15T06:03:58.849Z,7.90
2017-10-15T06:06:27.072Z,7.90
2017-10-15T06:08:56.063Z,8.00
2017-10-15T06:11:25.239Z,8.00
2017-10-15T06:13:54.311Z,8.00
2017-10-15T06:16:22.532Z,7.90
2017-10-15T06:18:50.822Z,8.10
2017-10-15T06:21:19.049Z,8.10
2017-10-15T06:23:47.272Z,8.10
2017-10-15T06:26:15.537Z,8.20
2017-10-15T06:28:43.769Z,8.20
2017-10-15T06:31:12.765Z,8.40
2017-10-15T06:33:41.808Z,8.40
2017-10-15T06:36:10.033Z,8.40
2017-10-15T06:38:38.274Z,8.50
2017-10-15T06:41:06.529Z,8.50
2017-10-15T06:43:34.769Z,8.60
2017-10-15T06:46:03.779Z,8.80
2017-10-15T06:48:32.057Z,8.80
2017-10-15T06:51:00.285Z,8.90
2017-10-15T06:53:29.280Z,9.00
2017-10-15T06:55:57.668Z,9.00
2017-10-15T06:58:25.892Z,9.10
2017-10-15T07:00:54.880Z,9.40
2017-10-15T07:03:23.156Z,9.30
2017-10-15T07:05:51.392Z,9.50
2017-10-15T07:08:19.612Z,9.60
2017-10-15T07:10:47.914Z,9.70
2017-10-15T07:13:16.900Z,10.00
2017-10-15T07:15:45.135Z,9.90
2017-10-15T07:18:14.164Z,10.30
2017-10-15T07:20:42.424Z,10.20
2017-10-15T07:23:10.659Z,10.40
2017-10-15T07:25:39.057Z,10.50
2017-10-15T07:28:07.288Z,10.70
2017-10-15T07:30:35.538Z,10.80
2017-10-15T07:33:04.547Z,11.10
2017-10-15T07:35:32.805Z,11.10
2017-10-15T07:38:01.033Z,11.20
2017-10-15T07:40:29.310Z,11.40
2017-10-15T07:42:57.540Z,11.50
2017-10-15T07:45:26.557Z,11.70
2017-10-15T07:47:54.816Z,11.70
2017-10-15T07:50:23.050Z,11.90
2017-10-15T07:52:52.045Z,12.10
2017-10-15T07:55:20.301Z,12.00
2017-10-15T07:57:48.533Z,12.10
2017-10-15T08:00:16.770Z,12.20
2017-10-15T08:02:45.030Z,12.30
2017-10-15T08:05:13.261Z,12.40
2017-10-15T08:07:41.493Z,12.60
2017-10-15T08:10:10.536Z,13.00
2017-10-15T08:12:38.764Z,12.90
2017-10-15T08:15:07.001Z,11.80
2017-10-15T08:17:35.318Z,13.40
2017-10-15T08:20:03.536Z,13.50
2017-10-15T08:22:31.765Z,13.70
2017-10-15T08:25:00.796Z,14.10
2017-10-15T08:27:29.030Z,14.00
2017-10-15T08:29:57.314Z,14.30
2017-10-15T08:32:25.584Z,14.50
2017-10-15T08:34:53.825Z,14.60
2017-10-15T08:37:22.056Z,14.60
2017-10-15T08:39:50.456Z,14.70
2017-10-15T08:42:18.683Z,14.80
2017-10-15T08:44:46.926Z,15.00
2017-10-15T08:47:15.960Z,15.20
2017-10-15T08:49:44.188Z,15.20
2017-10-15T08:52:12.429Z,15.40
2017-10-15T08:54:41.564Z,15.80
2017-10-15T08:57:09.801Z,15.80
2017-10-15T08:59:38.045Z,16.10
2017-10-15T09:02:07.089Z,16.50
2017-10-15T09:04:35.324Z,16.40
2017-10-15T09:07:03.593Z,16.60
2017-10-15T09:09:31.842Z,16.80
2017-10-15T09:12:00.082Z,16.90
2017-10-15T09:14:28.320Z,17.10
2017-10-15T09:16:57.349Z,17.40
2017-10-15T09:19:25.584Z,17.30
2017-10-15T09:21:53.825Z,17.50
2017-10-15T09:24:22.117Z,17.70
2017-10-15T09:26:50.344Z,17.90
2017-10-15T09:29:18.580Z,18.10
2017-10-15T09:31:47.616Z,18.20
2017-10-15T09:34:15.857Z,18.20
2017-10-15T09:36:44.105Z,18.30
2017-10-15T09:39:12.364Z,18.50
2017-10-15T09:41:41.365Z,18.60
2017-10-15T09:44:09.603Z,18.60
2017-10-15T09:46:37.904Z,18.80
2017-10-15T09:49:08.608Z,18.90
2017-10-15T09:51:36.849Z,18.90
2017-10-15T09:54:05.128Z,18.90
2017-10-15T09:56:33.370Z,19.00
2017-10-15T09:59:02.365Z,19.10
2017-10-15T10:01:30.633Z,19.10
2017-10-15T10:03:58.868Z,19.20
2017-10-15T10:06:27.168Z,19.40
2017-10-15T10:08:55.468Z,19.60
2017-10-15T10:11:23.701Z,19.70
2017-10-15T10:13:51.937Z,19.70
2017-10-15T10:16:20.192Z,19.90
2017-10-15T10:18:48.437Z,19.90
2017-10-15T10:21:16.673Z,20.00
2017-10-15T10:23:45.729Z,20.30
2017-10-15T10:26:15.472Z,20.30
2017-10-15T10:28:43.724Z,20.30
2017-10-15T10:31:12.001Z,20.60
2017-10-15T10:33:40.248Z,20.50
2017-10-15T10:36:08.480Z,20.70
2017-10-15T10:38:36.762Z,20.80
2017-10-15T10:41:05.764Z,20.90
2017-10-15T10:43:33.996Z,20.90
2017-10-15T10:46:02.274Z,21.00
2017-10-15T10:48:30.512Z,21.10
2017-10-15T10:50:59.513Z,21.30
2017-10-15T10:53:27.798Z,21.30
2017-10-15T10:55:56.040Z,21.40
2017-10-15T10:58:24.288Z,21.60
2017-10-15T11:00:52.564Z,21.60
2017-10-15T11:03:20.809Z,21.80
2017-10-15T11:05:49.048Z,22.00
2017-10-15T11:08:18.097Z,22.20
2017-10-15T11:10:46.332Z,22.10
2017-10-15T11:13:14.570Z,22.30
2017-10-15T11:15:42.841Z,22.50
2017-10-15T11:18:11.093Z,22.60
2017-10-15T11:20:39.332Z,22.70
2017-10-15T11:23:07.793Z,23.00
2017-10-15T11:25:36.805Z,23.30
2017-10-15T11:28:05.060Z,23.30
2017-10-15T11:30:33.325Z,23.50
2017-10-15T11:33:01.562Z,23.60
2017-10-15T11:35:30.573Z,23.60
2017-10-15T11:37:58.853Z,23.60
2017-10-15T11:40:27.096Z,23.80
2017-10-15T11:42:55.331Z,23.90
2017-10-15T11:45:24.382Z,25.10
2017-10-15T11:47:52.621Z,23.90
2017-10-15T11:50:20.892Z,24.30
2017-10-15T11:52:49.186Z,24.30
2017-10-15T11:55:18.189Z,24.70
2017-10-15T11:57:46.420Z,24.70
2017-10-15T12:00:15.445Z,24.90
2017-10-15T12:02:43.685Z,24.80
2017-10-15T12:05:11.940Z,24.60
2017-10-15T12:07:40.224Z,24.60
2017-10-15T12:10:08.461Z,24.70
2017-10-15T12:12:37.643Z,24.90
2017-10-15T12:15:06.872Z,24.90
2017-10-15T12:17:35.109Z,24.90
2017-10-15T12:20:03.350Z,24.90
2017-10-15T12:22:31.616Z,25.10
2017-10-15T12:24:59.858Z,25.40
2017-10-15T12:27:28.852Z,25.70
2017-10-15T12:29:57.132Z,25.60
2017-10-15T12:32:25.361Z,25.90
2017-10-15T12:34:54.417Z,26.10
2017-10-15T12:37:24.289Z,26.00
2017-10-15T12:39:52.524Z,26.00
2017-10-15T12:42:20.752Z,26.10
2017-10-15T12:44:50.001Z,27.00
2017-10-15T12:47:18.233Z,27.00
2017-10-15T12:49:46.472Z,26.70
2017-10-15T12:52:14.741Z,26.50
2017-10-15T12:54:42.968Z,26.50
2017-10-15T12:57:11.976Z,26.30
2017-10-15T12:59:40.384Z,26.20
2017-10-15T13:02:08.616Z,26.40
2017-10-15T13:04:36.870Z,26.60
2017-10-15T13:07:05.262Z,26.80
2017-10-15T13:09:33.504Z,26.90
2017-10-15T13:12:01.736Z,26.90
2017-10-15T13:14:30.144Z,27.20
2017-10-15T13:16:58.391Z,27.30
2017-10-15T13:19:26.637Z,27.50
2017-10-15T13:21:54.905Z,27.70
2017-10-15T13:24:23.140Z,27.40
2017-10-15T13:26:52.156Z,27.40
2017-10-15T13:29:20.512Z,27.30
2017-10-15T13:31:48.749Z,27.50
2017-10-15T13:34:16.994Z,27.70
2017-10-15T13:36:46.040Z,27.50
2017-10-15T13:39:14.276Z,27.50
2017-10-15T13:41:42.518Z,27.40
2017-10-15T13:44:11.012Z,27.50
2017-10-15T13:46:39.244Z,27.60
2017-10-15T13:49:07.479Z,27.60
2017-10-15T13:51:36.754Z,27.80
2017-10-15T13:54:04.968Z,27.70
2017-10-15T13:56:33.204Z,27.80
2017-10-15T13:59:01.505Z,27.80
2017-10-15T14:01:29.735Z,27.80
2017-10-15T14:03:57.980Z,27.70
2017-10-15T14:06:26.239Z,27.70
2017-10-15T14:08:55.245Z,27.80
2017-10-15T14:11:23.505Z,27.80
2017-10-15T14:13:51.885Z,27.80
2017-10-15T14:16:20.125Z,27.70
2017-10-15T14:18:49.124Z,28.00
2017-10-15T14:21:17.401Z,27.90
2017-10-15T14:23:45.628Z,27.80
2017-10-15T14:26:13.869Z,27.90
2017-10-15T14:28:42.148Z,27.80
2017-10-15T14:31:10.389Z,27.60
2017-10-15T14:33:38.625Z,27.60
2017-10-15T14:36:06.892Z,27.70
2017-10-15T14:38:35.884Z,28.10
2017-10-15T14:41:04.132Z,28.00
2017-10-15T14:43:33.376Z,28.40
2017-10-15T14:46:01.604Z,28.30
2017-10-15T14:48:29.848Z,28.20
2017-10-15T14:50:58.100Z,28.20
2017-10-15T14:53:27.096Z,27.90
2017-10-15T14:55:55.337Z,27.90
2017-10-15T14:58:24.476Z,28.00
2017-10-15T15:00:52.710Z,28.00
2017-10-15T15:03:20.953Z,27.90
2017-10-15T15:05:49.219Z,27.80
2017-10-15T15:08:17.458Z,27.70
2017-10-15T15:10:46.461Z,27.10
2017-10-15T15:13:15.054Z,27.00
2017-10-15T15:15:43.300Z,26.90
2017-10-15T15:18:11.533Z,26.40
2017-10-15T15:20:40.561Z,26.10
2017-10-15T15:23:08.787Z,26.10
2017-10-15T15:25:37.037Z,25.80
2017-10-15T15:28:06.064Z,24.90
2017-10-15T15:30:34.300Z,24.90
2017-10-15T15:33:02.565Z,24.60
2017-10-15T15:35:31.625Z,23.80
2017-10-15T15:37:59.857Z,23.80
2017-10-15T15:40:28.105Z,23.60
2017-10-15T15:42:56.390Z,23.40
2017-10-15T15:45:25.393Z,22.80
2017-10-15T15:47:53.633Z,22.80
2017-10-15T15:50:22.660Z,22.60
2017-10-15T15:52:50.909Z,22.60
2017-10-15T15:55:19.153Z,22.40
2017-10-15T15:57:47.424Z,22.20
2017-10-15T16:00:15.669Z,22.00
2017-10-15T16:02:43.936Z,21.90
2017-10-15T16:05:12.214Z,21.70
2017-10-15T16:07:40.449Z,21.60
2017-10-15T16:10:08.684Z,21.30
2017-10-15T16:12:37.927Z,21.00
2017-10-15T16:15:06.189Z,20.90
2017-10-15T16:17:34.428Z,20.70
2017-10-15T16:20:02.828Z,20.40
2017-10-15T16:22:31.070Z,20.20
2017-10-15T16:24:59.310Z,20.10
2017-10-15T16:27:27.589Z,19.80
2017-10-15T16:29:55.828Z,19.80
2017-10-15T16:32:24.088Z,19.80
2017-10-15T16:34:52.361Z,19.70
2017-10-15T16:37:20.612Z,19.50
2017-10-15T16:39:48.852Z,19.40
2017-10-15T16:42:17.123Z,19.20
2017-10-15T16:44:45.365Z,19.00
2017-10-15T16:47:14.363Z,18.70
2017-10-15T16:49:42.616Z,18.70
2017-10-15T16:52:11.621Z,18.30
2017-10-15T16:54:40.785Z,18.20
2017-10-15T16:57:09.065Z,18.20
2017-10-15T16:59:37.300Z,18.00
2017-10-15T17:02:05.564Z,17.90
2017-10-15T17:04:34.618Z,17.80
2017-10-15T17:07:04.358Z,17.70
2017-10-15T17:09:32.584Z,17.70
2017-10-15T17:12:01.635Z,17.60
2017-10-15T17:14:29.861Z,17.60
2017-10-15T17:16:58.100Z,17.60
2017-10-15T17:19:26.473Z,17.50
2017-10-15T17:21:54.713Z,17.50
2017-10-15T17:24:23.737Z,17.40
2017-10-15T17:26:52.212Z,17.40
2017-10-15T17:29:20.436Z,17.40
2017-10-15T17:31:48.677Z,17.30
2017-10-15T17:34:17.786Z,17.30
2017-10-15T17:36:47.970Z,17.20
2017-10-15T17:39:16.972Z,17.10
2017-10-15T17:41:45.228Z,17.10
2017-10-15T17:44:13.457Z,17.10
2017-10-15T17:46:41.737Z,17.10
2017-10-15T17:49:09.968Z,16.90
2017-10-15T17:51:38.992Z,16.90
2017-10-15T17:54:07.687Z,16.80
2017-10-15T17:56:41.600Z,16.90
2017-10-15T17:59:09.972Z,16.80
2017-10-15T18:01:38.228Z,16.90
2017-10-15T18:04:06.453Z,16.90
2017-10-15T18:06:34.932Z,16.80
2017-10-15T18:09:03.177Z,16.70
2017-10-15T18:11:31.405Z,16.60
2017-10-15T18:13:59.684Z,16.60
2017-10-15T18:16:27.922Z,16.50
2017-10-15T18:18:56.944Z,16.40
2017-10-15T18:21:25.196Z,16.30
2017-10-15T18:23:53.480Z,16.40
2017-10-15T18:26:22.184Z,16.30
2017-10-15T18:28:51.220Z,16.20
2017-10-15T18:31:19.455Z,16.10
2017-10-15T18:33:47.689Z,16.10
2017-10-15T18:36:16.730Z,16.10
2017-10-15T18:38:44.965Z,16.00
2017-10-15T18:41:13.327Z,16.10
2017-10-15T18:43:41.569Z,16.00
2017-10-15T18:46:09.808Z,16.00
2017-10-15T18:48:38.830Z,15.80
2017-10-15T18:51:07.103Z,15.70
2017-10-15T18:53:35.504Z,15.70
2017-10-15T18:56:04.510Z,15.50
2017-10-15T18:58:32.791Z,15.40
2017-10-15T19:01:01.025Z,15.40
2017-10-15T19:03:29.260Z,15.30
2017-10-15T19:05:57.534Z,15.20
2017-10-15T19:08:25.782Z,15.10
2017-10-15T19:10:54.017Z,15.00
2017-10-15T19:13:22.276Z,14.90
2017-10-15T19:15:50.513Z,14.90
2017-10-15T19:18:18.785Z,14.80
2017-10-15T19:20:47.481Z,14.80
2017-10-15T19:23:15.723Z,14.80
2017-10-15T19:25:43.958Z,14.70
2017-10-15T19:28:12.316Z,14.60
2017-10-15T19:30:40.544Z,14.70
2017-10-15T19:33:09.540Z,14.50
2017-10-15T19:35:37.846Z,14.50
2017-10-15T19:38:06.128Z,14.40
2017-10-15T19:40:34.392Z,14.40
2017-10-15T19:43:02.829Z,14.30
2017-10-15T19:45:31.060Z,14.20
2017-10-15T19:47:59.297Z,14.10
2017-10-15T19:50:28.336Z,14.10
2017-10-15T19:52:56.564Z,14.00
2017-10-15T19:55:25.568Z,14.10
2017-10-15T19:57:54.044Z,14.00
2017-10-15T20:00:22.286Z,13.90
2017-10-15T20:02:50.522Z,13.80
2017-10-15T20:05:18.784Z,13.70
2017-10-15T20:07:47.021Z,13.70
2017-10-15T20:10:16.013Z,13.50
2017-10-15T20:12:44.286Z,13.40
2017-10-15T20:15:12.525Z,13.40
2017-10-15T20:17:41.532Z,13.20
2017-10-15T20:20:09.792Z,13.20
2017-10-15T20:22:38.033Z,13.20
2017-10-15T20:25:06.265Z,13.10
2017-10-15T20:27:34.529Z,13.10
2017-10-15T20:30:02.825Z,13.10
2017-10-15T20:32:31.061Z,13.10
2017-10-15T20:35:00.093Z,12.90
2017-10-15T20:37:28.329Z,12.90
2017-10-15T20:39:56.577Z,13.00
2017-10-15T20:42:24.957Z,13.00
2017-10-15T20:44:54.019Z,12.90
2017-10-15T20:47:22.252Z,12.80
2017-10-15T20:49:50.515Z,12.80
2017-10-15T20:52:18.740Z,12.70
2017-10-15T20:54:46.977Z,12.70
2017-10-15T20:57:15.252Z,12.70
2017-10-15T20:59:43.484Z,12.70
2017-10-15T21:02:11.716Z,12.70
2017-10-15T21:04:40.844Z,12.70
2017-10-15T21:07:09.076Z,12.70
2017-10-15T21:09:38.081Z,12.60
2017-10-15T21:12:06.360Z,12.60
2017-10-15T21:14:34.596Z,12.50
2017-10-15T21:17:02.833Z,12.50
2017-10-15T21:19:31.885Z,12.50
2017-10-15T21:22:00.112Z,12.40
2017-10-15T21:24:28.354Z,12.40
2017-10-15T21:26:56.610Z,12.40
2017-10-15T21:29:24.840Z,12.40
2017-10-15T21:31:53.905Z,12.30
2017-10-15T21:34:22.165Z,12.30
2017-10-15T21:36:50.396Z,12.20
2017-10-15T21:39:18.645Z,12.10
2017-10-15T21:41:46.924Z,12.10
2017-10-15T21:44:15.179Z,12.10
2017-10-15T21:46:43.407Z,12.10
2017-10-15T21:49:11.676Z,12.20
2017-10-15T21:51:39.913Z,12.20
2017-10-15T21:54:08.918Z,12.20
2017-10-15T21:56:37.185Z,12.10
2017-10-15T21:59:05.412Z,12.10
2017-10-15T22:01:34.426Z,12.00
2017-10-15T22:04:02.698Z,12.00
2017-10-15T22:06:30.933Z,11.90
2017-10-15T22:08:59.233Z,11.90
2017-10-15T22:11:27.693Z,11.90
2017-10-15T22:13:55.930Z,11.90
2017-10-15T22:16:24.168Z,11.90
2017-10-15T22:18:58.744Z,11.80
2017-10-15T22:21:32.657Z,11.80
2017-10-15T22:24:01.801Z,11.60
2017-10-15T22:26:30.045Z,11.60
2017-10-15T22:28:58.272Z,11.60
2017-10-15T22:31:27.309Z,11.60
2017-10-15T22:33:55.549Z,11.60
2017-10-15T22:36:23.829Z,11.50
2017-10-15T22:38:52.282Z,11.50
2017-10-15T22:41:21.180Z,11.40
2017-10-15T22:43:49.423Z,11.40
2017-10-15T22:46:17.680Z,11.30
2017-10-15T22:48:45.918Z,11.30
2017-10-15T22:51:14.145Z,11.30
2017-10-15T22:53:43.394Z,11.10
2017-10-15T22:56:11.631Z,11.10
2017-10-15T22:58:39.866Z,11.20
2017-10-15T23:01:08.892Z,11.10
2017-10-15T23:03:37.124Z,11.10
2017-10-15T23:06:05.357Z,11.20
2017-10-15T23:08:34.392Z,11.00
2017-10-15T23:11:02.629Z,11.00
2017-10-15T23:13:30.860Z,11.00
2017-10-15T23:15:59.132Z,10.90
2017-10-15T23:18:27.363Z,10.80
2017-10-15T23:20:56.363Z,10.80
2017-10-15T23:23:24.631Z,10.70
2017-10-15T23:25:52.869Z,10.80
2017-10-15T23:28:21.870Z,10.70
2017-10-15T23:30:50.161Z,10.60
2017-10-15T23:33:18.388Z,10.70
2017-10-15T23:35:46.627Z,10.60
2017-10-15T23:38:15.653Z,10.50
2017-10-15T23:40:43.884Z,10.50
2017-10-15T23:43:12.888Z,10.60
2017-10-15T23:45:41.156Z,10.50
2017-10-15T23:48:09.387Z,10.50
2017-10-15T23:50:37.680Z,10.50
2017-10-15T23:53:05.964Z,10.50
2017-10-15T23:55:34.200Z,10.40
2017-10-15T23:58:02.427Z,10.40
